WetterOnline ( http://www.wetteronline.de )

Wetter aktuell Altusried

Aktuelles Wetter: Kempten (705m)

6-stündlich | Neueste Meldungen
Ortszeit Temperatur Wetter
So, 23.09. 20:00 21.7° C wolkenlos
So, 23.09. 14:00 21.3° C wolkig
So, 23.09. 8:00 15.3° C bedeckt
So, 23.09. 2:00 11.7° C Sprühregen
Sa, 22.09. 20:00 13.7° C bedeckt
Sa, 22.09. 14:00 13.9° C leicht bewölkt
Sa, 22.09. 8:00 8.7° C fast wolkenlos
Sa, 22.09. 2:00 9.9° C bedeckt
Ortszeit Temperatur Wetter
So, 23.09. 21:30 20.0° C bewölkt
So, 23.09. 21:20 20.0° C bewölkt
So, 23.09. 21:10 20.3° C leichter Regen
So, 23.09. 21:00 21.0° C wolkig
So, 23.09. 20:50 21.0° C wolkig
So, 23.09. 20:40 20.9° C Regen
So, 23.09. 20:30 21.3° C leicht bewölkt
So, 23.09. 20:00 21.7° C wolkenlos
So, 23.09. 19:30 22.1° C wolkenlos
So, 23.09. 19:00 21.9° C wolkenlos
So, 23.09. 18:30 22.2° C wolkenlos
Ortszeit Relative Feuchte Sichtweite
So, 23.09. 20:00 61% 45 km
So, 23.09. 14:00 62% 25 km
So, 23.09. 8:00 86% 45 km
So, 23.09. 2:00 85% 6 km
Sa, 22.09. 20:00 64% 35 km
Sa, 22.09. 14:00 61% 25 km
Sa, 22.09. 8:00 92% 23 km
Sa, 22.09. 2:00 89% 35 km
Ortszeit Relative Feuchte Sichtweite
So, 23.09. 21:30 71% 30 km
So, 23.09. 21:20 71% -
So, 23.09. 21:10 70% -
So, 23.09. 21:00 65% 35 km
So, 23.09. 20:50 65% -
So, 23.09. 20:40 67% -
So, 23.09. 20:30 65% 50 km
So, 23.09. 20:00 61% 45 km
So, 23.09. 19:30 59% 50 km
So, 23.09. 19:00 61% 55 km
So, 23.09. 18:30 60% 70 km
Ortszeit Niederschlagsmenge Niederschlagsart
So, 23.09. 20:00 0.0 l/m2 in 12 Std. -
So, 23.09. 14:00 0.0 l/m2 in 6 Std. -
So, 23.09. 8:00 3 l/m2 in 12 Std. Regen
So, 23.09. 2:00 1 l/m2 in 6 Std. Regen
Sa, 22.09. 20:00 0.0 l/m2 in 12 Std. -
Sa, 22.09. 14:00 0.0 l/m2 in 6 Std. -
Sa, 22.09. 8:00 5 l/m2 in 12 Std. Regen
Sa, 22.09. 2:00 5 l/m2 in 6 Std. Regen
Ortszeit Niederschlagsmenge Niederschlagsart
So, 23.09. 21:30 0.3 l/m2 in 1 Std. Schneeregen
So, 23.09. 21:20 keine Meldung -
So, 23.09. 21:10 keine Meldung -
So, 23.09. 21:00 0.1 l/m2 in 1 Std. Regen
So, 23.09. 20:50 keine Meldung -
So, 23.09. 20:40 keine Meldung -
So, 23.09. 20:30 0.0 l/m2 in 1 Std. -
So, 23.09. 20:00 0.0 l/m2 in 1 Std. -
So, 23.09. 19:30 0.0 l/m2 in 1 Std. -
So, 23.09. 19:00 0.0 l/m2 in 1 Std. -
So, 23.09. 18:30 0.0 l/m2 in 1 Std. -
Ortszeit Stärke Spitze Richtung
km/h Bft. km/h Grad Sektor
So, 23.09. 20:00 17 3 57 260° W
So, 23.09. 14:00 15 3 37 250° W
So, 23.09. 8:00 7 2 32 220° SW
So, 23.09. 2:00 7 2 25 250° W
Sa, 22.09. 20:00 4 1 22 230° SW
Sa, 22.09. 14:00 7 2 14 270° W
Sa, 22.09. 8:00 7 2 18 130° SO
Sa, 22.09. 2:00 7 2 31 220° SW
Ortszeit Stärke Spitze Richtung
km/h Bft. km/h Grad Sektor
So, 23.09. 21:30 14 3 43 250° W
So, 23.09. 21:20 14 3 - 250° W
So, 23.09. 21:10 17 3 - 250° W
So, 23.09. 21:00 18 3 40 240° SW
So, 23.09. 20:50 18 3 - 240° SW
So, 23.09. 20:40 17 3 - 240° SW
So, 23.09. 20:30 17 3 39 250° W
So, 23.09. 20:00 17 3 57 260° W
So, 23.09. 19:30 18 3 47 260° W
So, 23.09. 19:00 14 3 40 230° SW
So, 23.09. 18:30 15 3 39 220° SW
Ortszeit Untergrenze Bedeckung Gattung
total tief tief mittel hoch
So, 23.09. 20:00 - 0/8 0/8 - - -
So, 23.09. 14:00 1800 m 7/8 1/8 - - -
So, 23.09. 8:00 690 m 8/8 8/8 - - -
So, 23.09. 2:00 510 m 8/8 8/8 - - -
Sa, 22.09. 20:00 2100 m 8/8 8/8 - - -
Sa, 22.09. 14:00 900 m 2/8 1/8 - - -
Sa, 22.09. 8:00 9000 m 1/8 0/8 - - -
Sa, 22.09. 2:00 1500 m 8/8 8/8 - - -
Ortszeit Bedeckungsgrad in Achtel und Wolkenuntergrenze
So, 23.09. 21:30 1(930m) 6(2100m) 7(3000m)
So, 23.09. 21:20 1(930m) 6(2100m) 7(3000m)
So, 23.09. 21:10 1(960m) 7(2100m) 7(3300m)
So, 23.09. 21:00 2(1410m) 8(3600m) 8(4500m)
So, 23.09. 20:50 2(1410m) 8(3600m) 8(4500m)
So, 23.09. 20:40 2(1320m) 7(2700m) 7(3300m)
So, 23.09. 20:30 1(1470m) 3(2400m) 5(4800m)
So, 23.09. 20:00 keine Wolken
So, 23.09. 19:30 keine Wolken
So, 23.09. 19:00 keine Wolken
So, 23.09. 18:30 keine Wolken
Ortszeit Luftdruck NN (hPa) Tendenz (hPa in 3 Std.)
So, 23.09. 20:00 1007 - 1,7
So, 23.09. 14:00 1013 - 1,8
So, 23.09. 8:00 1017 - 0,9
So, 23.09. 2:00 1022 + 0,7
Sa, 22.09. 20:00 1021 - 0,4
Sa, 22.09. 14:00 1022 - 1,6
Sa, 22.09. 8:00 1025 - 0,1
Sa, 22.09. 2:00 1024 + 2,1
Ortszeit Luftdruck NN (hPa) Tendenz (hPa in 3 Std.)
So, 23.09. 21:30 1009 + 0,7
So, 23.09. 21:20 1009 keine Meldung
So, 23.09. 21:10 1009 keine Meldung
So, 23.09. 21:00 1008 - 0,2
So, 23.09. 20:50 1008 keine Meldung
So, 23.09. 20:40 1008 keine Meldung
So, 23.09. 20:30 1008 - 0,4
So, 23.09. 20:00 1007 - 1,7
So, 23.09. 19:30 1007 - 2,2
So, 23.09. 19:00 1007 - 2,9
So, 23.09. 18:30 1008 - 3,0
Ortszeit Schneehöhe (cm)
So, 23.09. 20:00 -
So, 23.09. 14:00 -
So, 23.09. 8:00 -
So, 23.09. 2:00 -
Sa, 22.09. 20:00 -
Sa, 22.09. 14:00 -
Sa, 22.09. 8:00 -
Sa, 22.09. 2:00 -
Ortszeit Schneehöhe (cm)
So, 23.09. 21:30 -
So, 23.09. 21:20 -
So, 23.09. 21:10 -
So, 23.09. 21:00 -
So, 23.09. 20:50 -
So, 23.09. 20:40 -
So, 23.09. 20:30 -
So, 23.09. 20:00 -
So, 23.09. 19:30 -
So, 23.09. 19:00 -
So, 23.09. 18:30 -
Link zu dieser Seite / Seite empfehlen

Das Wetter in ...